Hlavní strana
METAR-TAF:

METAR-TAF

Letiště :

Rabat, Maroko

zeměpisná šířka: 34-03N, zeměpisná délka: 006-46W, výška: 84 m

Aktuální stav počasí

Zpráva byla vytvořena před 25 minutami, v 08:30 UTC
Severovýchodní vítr 7 kt, proměnlivý mezi severním a východním
Teplota 22°C
Vlhkost vzduchu 60%
Tlak 1021 hPa
Viditelnost: 8000 m
Polojasno ve výšce 2000 ft

METAR: GMME 160830Z 04007KT 360V090 8000 SCT020 22/14 Q1021 NOSIG

Čas: 09:55 (08:55 UTC)

Předpověď počasí

Zpráva byla vytvořena před 3 hodinami a 55 minutami, v 05:00 UTC
Předpověď platná od 16 v 06 UTC do 17 v 12 UTC
Severozápadní vítr 10 kt
Viditelnost: 8000 m
Polojasno ve výšce 2600 ft
Dočasný
od 16 v 08 UTC do 16 v 18 UTC
Viditelnost 10 km a více
Žádná oblačnost pod 1500 m, nevyskytují se cumulonimby.
Změna
od 16 v 20 UTC do 16 v 24 UTC
vítr z různých směrů 2 kt

TAF: GMME 160500Z 1606/1712 32010KT 8000 SCT026 TEMPO 1608/1618 CAVOK BECMG 1620/1624 VRB02KT

Stav a předpovědi počasí z více než 4 000 letišť (zprávy METAR a TAF).

Červené a žluté tečky na mapě představují dostupné meteorologické stanice.

Když kurzor umístíte na tečku, zobrazí se název stanice.

Pak kliknutím zobrazíte stav a předpověď počasí.

Chcete-li změnit mapu, kliknutím na zelené tlačítko se znaménkem +mapu přiblížíte, kliknutím na zelené tlačítko se znaménkem – mapu oddálíte a kliknutím na zelené šipky přejdete na sousední mapy.


METAR-TAF: